sensor_id;sensor_type;location;lat;lon;timestamp;pressure;altitude;pressure_sealevel;temperature;humidity
34328;BME280;20588;48.840;10.064;2023-07-02T00:01:45;95893.66;;;17.02;100.00
34328;BME280;20588;48.840;10.064;2023-07-02T00:04:13;95887.19;;;16.89;100.00
34328;BME280;20588;48.840;10.064;2023-07-02T00:06:42;95895.00;;;16.84;100.00
34328;BME280;20588;48.840;10.064;2023-07-02T00:09:11;95901.25;;;16.78;100.00
34328;BME280;20588;48.840;10.064;2023-07-02T00:11:39;95902.56;;;16.71;100.00
34328;BME280;20588;48.840;10.064;2023-07-02T00:14:09;95908.81;;;16.65;100.00
34328;BME280;20588;48.840;10.064;2023-07-02T00:16:41;95904.66;;;16.59;100.00
34328;BME280;20588;48.840;10.064;2023-07-02T00:19:07;95908.03;;;16.54;100.00
34328;BME280;20588;48.840;10.064;2023-07-02T00:21:33;95913.00;;;16.51;100.00
34328;BME280;20588;48.840;10.064;2023-07-02T00:23:59;95903.66;;;16.45;100.00
34328;BME280;20588;48.840;10.064;2023-07-02T00:26:27;95905.16;;;16.41;100.00
34328;BME280;20588;48.840;10.064;2023-07-02T00:28:54;95905.44;;;16.39;100.00
34328;BME280;20588;48.840;10.064;2023-07-02T00:31:21;95903.34;;;16.36;100.00
34328;BME280;20588;48.840;10.064;2023-07-02T00:33:48;95905.72;;;16.33;100.00
34328;BME280;20588;48.840;10.064;2023-07-02T00:36:14;95900.75;;;16.36;100.00
34328;BME280;20588;48.840;10.064;2023-07-02T00:38:45;95891.69;;;16.34;100.00
34328;BME280;20588;48.840;10.064;2023-07-02T00:41:13;95898.94;;;16.32;100.00
34328;BME280;20588;48.840;10.064;2023-07-02T00:43:39;95898.44;;;16.30;100.00
34328;BME280;20588;48.840;10.064;2023-07-02T00:46:13;95896.38;;;16.27;100.00
34328;BME280;20588;48.840;10.064;2023-07-02T00:48:47;95896.09;;;16.23;100.00
34328;BME280;20588;48.840;10.064;2023-07-02T00:51:18;95907.00;;;16.20;100.00
34328;BME280;20588;48.840;10.064;2023-07-02T00:53:45;95901.03;;;16.19;100.00
34328;BME280;20588;48.840;10.064;2023-07-02T00:56:12;95901.53;;;16.16;100.00
34328;BME280;20588;48.840;10.064;2023-07-02T00:58:48;95897.41;;;16.15;100.00
34328;BME280;20588;48.840;10.064;2023-07-02T01:01:20;95902.84;;;16.14;100.00
34328;BME280;20588;48.840;10.064;2023-07-02T01:06:23;95904.38;;;16.10;100.00
34328;BME280;20588;48.840;10.064;2023-07-02T01:08:57;95900.25;;;16.09;100.00
34328;BME280;20588;48.840;10.064;2023-07-02T01:11:35;95895.84;;;16.04;100.00
34328;BME280;20588;48.840;10.064;2023-07-02T01:14:08;95901.53;;;16.01;100.00
34328;BME280;20588;48.840;10.064;2023-07-02T01:16:36;95901.78;;;15.95;100.00
34328;BME280;20588;48.840;10.064;2023-07-02T01:19:07;95899.44;;;15.93;100.00
34328;BME280;20588;48.840;10.064;2023-07-02T01:21:37;95903.88;;;15.93;100.00
34328;BME280;20588;48.840;10.064;2023-07-02T01:24:04;95907.00;;;15.90;100.00
34328;BME280;20588;48.840;10.064;2023-07-02T01:26:31;95906.72;;;15.86;100.00
34328;BME280;20588;48.840;10.064;2023-07-02T01:29:00;95908.28;;;15.87;100.00
34328;BME280;20588;48.840;10.064;2023-07-02T01:31:26;95902.31;;;15.87;100.00
34328;BME280;20588;48.840;10.064;2023-07-02T01:33:52;95911.13;;;15.86;100.00
34328;BME280;20588;48.840;10.064;2023-07-02T01:36:18;95906.97;;;15.85;100.00
34328;BME280;20588;48.840;10.064;2023-07-02T01:38:44;95902.03;;;15.83;100.00
34328;BME280;20588;48.840;10.064;2023-07-02T01:41:10;95898.91;;;15.81;100.00
34328;BME280;20588;48.840;10.064;2023-07-02T01:43:36;95898.41;;;15.79;100.00
34328;BME280;20588;48.840;10.064;2023-07-02T01:46:02;95902.81;;;15.79;100.00
34328;BME280;20588;48.840;10.064;2023-07-02T01:48:28;95896.34;;;15.76;100.00
34328;BME280;20588;48.840;10.064;2023-07-02T01:50:55;95899.16;;;15.70;100.00
34328;BME280;20588;48.840;10.064;2023-07-02T01:53:21;95905.91;;;15.66;100.00
34328;BME280;20588;48.840;10.064;2023-07-02T01:55:47;95901.75;;;15.60;100.00
34328;BME280;20588;48.840;10.064;2023-07-02T01:58:13;95904.84;;;15.57;100.00
34328;BME280;20588;48.840;10.064;2023-07-02T02:00:39;95901.47;;;15.56;100.00
34328;BME280;20588;48.840;10.064;2023-07-02T02:03:05;95904.84;;;15.52;100.00
34328;BME280;20588;48.840;10.064;2023-07-02T02:05:31;95900.94;;;15.49;100.00
34328;BME280;20588;48.840;10.064;2023-07-02T02:07:57;95912.34;;;15.48;100.00
34328;BME280;20588;48.840;10.064;2023-07-02T02:10:24;95912.59;;;15.47;100.00
34328;BME280;20588;48.840;10.064;2023-07-02T02:12:50;95912.59;;;15.47;100.00
34328;BME280;20588;48.840;10.064;2023-07-02T02:15:16;95913.38;;;15.47;100.00
34328;BME280;20588;48.840;10.064;2023-07-02T02:17:42;95927.41;;;15.46;100.00
34328;BME280;20588;48.840;10.064;2023-07-02T02:20:08;95922.47;;;15.45;100.00
34328;BME280;20588;48.840;10.064;2023-07-02T02:22:34;95922.72;;;15.43;100.00
34328;BME280;20588;48.840;10.064;2023-07-02T02:25:00;95924.78;;;15.41;100.00
34328;BME280;20588;48.840;10.064;2023-07-02T02:27:26;95922.44;;;15.40;100.00
34328;BME280;20588;48.840;10.064;2023-07-02T02:29:53;95923.44;;;15.39;100.00
34328;BME280;20588;48.840;10.064;2023-07-02T02:32:19;95922.91;;;15.37;100.00
34328;BME280;20588;48.840;10.064;2023-07-02T02:34:47;95930.69;;;15.37;100.00
34328;BME280;20588;48.840;10.064;2023-07-02T02:37:13;95917.72;;;15.37;100.00
34328;BME280;20588;48.840;10.064;2023-07-02T02:39:39;95918.75;;;15.36;100.00
34328;BME280;20588;48.840;10.064;2023-07-02T02:42:05;95914.06;;;15.33;100.00
34328;BME280;20588;48.840;10.064;2023-07-02T02:44:31;95907.84;;;15.29;100.00
34328;BME280;20588;48.840;10.064;2023-07-02T02:46:58;95906.53;;;15.26;100.00
34328;BME280;20588;48.840;10.064;2023-07-02T02:49:25;95909.38;;;15.25;100.00
34328;BME280;20588;48.840;10.064;2023-07-02T02:51:51;95914.28;;;15.21;100.00
34328;BME280;20588;48.840;10.064;2023-07-02T02:54:17;95907.53;;;15.15;100.00
34328;BME280;20588;48.840;10.064;2023-07-02T02:56:43;95915.81;;;15.12;100.00
34328;BME280;20588;48.840;10.064;2023-07-02T02:59:09;95922.28;;;15.10;100.00
34328;BME280;20588;48.840;10.064;2023-07-02T03:01:35;95919.94;;;15.08;100.00
34328;BME280;20588;48.840;10.064;2023-07-02T03:04:01;95924.06;;;15.04;100.00
34328;BME280;20588;48.840;10.064;2023-07-02T03:06:27;95916.03;;;15.01;100.00
34328;BME280;20588;48.840;10.064;2023-07-02T03:08:53;95913.16;;;14.97;100.00
34328;BME280;20588;48.840;10.064;2023-07-02T03:11:19;95922.97;;;14.95;100.00
34328;BME280;20588;48.840;10.064;2023-07-02T03:13:46;95920.66;;;14.99;100.00
34328;BME280;20588;48.840;10.064;2023-07-02T03:16:12;95925.31;;;14.97;100.00
34328;BME280;20588;48.840;10.064;2023-07-02T03:18:38;95921.97;;;14.96;100.00
34328;BME280;20588;48.840;10.064;2023-07-02T03:21:05;95916.28;;;14.99;100.00
34328;BME280;20588;48.840;10.064;2023-07-02T03:23:31;95920.16;;;15.02;100.00
34328;BME280;20588;48.840;10.064;2023-07-02T03:25:57;95919.66;;;15.05;100.00
34328;BME280;20588;48.840;10.064;2023-07-02T03:28:23;95925.13;;;15.08;100.00
34328;BME280;20588;48.840;10.064;2023-07-02T03:30:49;95925.94;;;15.14;100.00
34328;BME280;20588;48.840;10.064;2023-07-02T03:33:15;95924.63;;;15.16;100.00
34328;BME280;20588;48.840;10.064;2023-07-02T03:35:41;95937.09;;;15.19;100.00
34328;BME280;20588;48.840;10.064;2023-07-02T03:38:07;95934.53;;;15.24;100.00
34328;BME280;20588;48.840;10.064;2023-07-02T03:40:33;95933.50;;;15.30;100.00
34328;BME280;20588;48.840;10.064;2023-07-02T03:42:59;95930.16;;;15.35;100.00
34328;BME280;20588;48.840;10.064;2023-07-02T03:45:25;95931.72;;;15.36;100.00
34328;BME280;20588;48.840;10.064;2023-07-02T03:47:51;95939.25;;;15.37;100.00
34328;BME280;20588;48.840;10.064;2023-07-02T03:50:18;95935.16;;;15.41;100.00
34328;BME280;20588;48.840;10.064;2023-07-02T03:52:44;95935.69;;;15.43;100.00
34328;BME280;20588;48.840;10.064;2023-07-02T03:55:10;95942.16;;;15.46;100.00
34328;BME280;20588;48.840;10.064;2023-07-02T03:57:36;95940.34;;;15.51;100.00
34328;BME280;20588;48.840;10.064;2023-07-02T04:00:02;95945.03;;;15.54;100.00
34328;BME280;20588;48.840;10.064;2023-07-02T04:02:30;95947.66;;;15.59;100.00
34328;BME280;20588;48.840;10.064;2023-07-02T04:04:56;95954.38;;;15.60;100.00
34328;BME280;20588;48.840;10.064;2023-07-02T04:07:22;95959.06;;;15.63;100.00
34328;BME280;20588;48.840;10.064;2023-07-02T04:09:49;95958.56;;;15.66;100.00
34328;BME280;20588;48.840;10.064;2023-07-02T04:12:15;95964.53;;;15.67;100.00
34328;BME280;20588;48.840;10.064;2023-07-02T04:14:41;95962.22;;;15.70;100.00
34328;BME280;20588;48.840;10.064;2023-07-02T04:17:08;95962.72;;;15.72;100.00
34328;BME280;20588;48.840;10.064;2023-07-02T04:19:34;95959.63;;;15.75;100.00
34328;BME280;20588;48.840;10.064;2023-07-02T04:22:00;95968.97;;;15.76;100.00
34328;BME280;20588;48.840;10.064;2023-07-02T04:24:26;95974.19;;;15.76;100.00
34328;BME280;20588;48.840;10.064;2023-07-02T04:26:52;95981.44;;;15.79;100.00
34328;BME280;20588;48.840;10.064;2023-07-02T04:29:18;95984.03;;;15.79;100.00
34328;BME280;20588;48.840;10.064;2023-07-02T04:31:44;95984.81;;;15.80;100.00
34328;BME280;20588;48.840;10.064;2023-07-02T04:34:10;95998.81;;;15.79;100.00
34328;BME280;20588;48.840;10.064;2023-07-02T04:36:37;95995.97;;;15.80;100.00
34328;BME280;20588;48.840;10.064;2023-07-02T04:39:03;96008.94;;;15.80;100.00
34328;BME280;20588;48.840;10.064;2023-07-02T04:41:29;96008.16;;;15.75;100.00
34328;BME280;20588;48.840;10.064;2023-07-02T04:43:55;96020.31;;;15.69;100.00
34328;BME280;20588;48.840;10.064;2023-07-02T04:46:21;96020.81;;;15.66;100.00
34328;BME280;20588;48.840;10.064;2023-07-02T04:48:47;96023.66;;;15.65;100.00
34328;BME280;20588;48.840;10.064;2023-07-02T04:51:14;96020.53;;;15.58;100.00
34328;BME280;20588;48.840;10.064;2023-07-02T04:53:40;96034.28;;;15.58;100.00
34328;BME280;20588;48.840;10.064;2023-07-02T04:56:06;96035.81;;;15.54;100.00
34328;BME280;20588;48.840;10.064;2023-07-02T04:58:32;96039.69;;;15.52;100.00
34328;BME280;20588;48.840;10.064;2023-07-02T05:00:59;96041.75;;;15.50;100.00
34328;BME280;20588;48.840;10.064;2023-07-02T05:03:25;96053.44;;;15.47;100.00
34328;BME280;20588;48.840;10.064;2023-07-02T05:05:52;96053.38;;;15.42;100.00
34328;BME280;20588;48.840;10.064;2023-07-02T05:08:18;96061.41;;;15.41;100.00
34328;BME280;20588;48.840;10.064;2023-07-02T05:10:44;96066.06;;;15.39;100.00
34328;BME280;20588;48.840;10.064;2023-07-02T05:13:10;96060.59;;;15.35;100.00
34328;BME280;20588;48.840;10.064;2023-07-02T05:15:36;96066.31;;;15.37;100.00
34328;BME280;20588;48.840;10.064;2023-07-02T05:18:02;96065.31;;;15.38;100.00
34328;BME280;20588;48.840;10.064;2023-07-02T05:20:28;96066.34;;;15.42;100.00
34328;BME280;20588;48.840;10.064;2023-07-02T05:22:54;96060.66;;;15.40;100.00
34328;BME280;20588;48.840;10.064;2023-07-02T05:25:20;96074.09;;;15.37;100.00
34328;BME280;20588;48.840;10.064;2023-07-02T05:27:46;96068.06;;;15.32;100.00
34328;BME280;20588;48.840;10.064;2023-07-02T05:30:13;96064.94;;;15.30;100.00
34328;BME280;20588;48.840;10.064;2023-07-02T05:32:39;96073.00;;;15.33;100.00
34328;BME280;20588;48.840;10.064;2023-07-02T05:35:06;96078.16;;;15.23;100.00
34328;BME280;20588;48.840;10.064;2023-07-02T05:37:32;96081.25;;;15.20;100.00
34328;BME280;20588;48.840;10.064;2023-07-02T05:39:58;96069.53;;;15.18;100.00
34328;BME280;20588;48.840;10.064;2023-07-02T05:42:24;96072.63;;;15.15;100.00
34328;BME280;20588;48.840;10.064;2023-07-02T05:44:50;96071.88;;;15.19;100.00
34328;BME280;20588;48.840;10.064;2023-07-02T05:47:16;96074.50;;;15.24;100.00
34328;BME280;20588;48.840;10.064;2023-07-02T05:49:43;96081.03;;;15.32;100.00
34328;BME280;20588;48.840;10.064;2023-07-02T05:52:09;96085.25;;;15.38;100.00
34328;BME280;20588;48.840;10.064;2023-07-02T05:54:38;96090.44;;;15.38;100.00
34328;BME280;20588;48.840;10.064;2023-07-02T05:57:04;96082.97;;;15.41;100.00
34328;BME280;20588;48.840;10.064;2023-07-02T05:59:30;96088.94;;;15.47;100.00
34328;BME280;20588;48.840;10.064;2023-07-02T06:01:56;96082.50;;;15.54;100.00
34328;BME280;20588;48.840;10.064;2023-07-02T06:04:22;96094.78;;;15.69;100.00
34328;BME280;20588;48.840;10.064;2023-07-02T06:06:48;96098.22;;;15.84;100.00
34328;BME280;20588;48.840;10.064;2023-07-02T06:09:14;96102.47;;;16.00;100.00
34328;BME280;20588;48.840;10.064;2023-07-02T06:11:40;96101.78;;;16.25;100.00
34328;BME280;20588;48.840;10.064;2023-07-02T06:14:06;96095.59;;;16.51;100.00
34328;BME280;20588;48.840;10.064;2023-07-02T06:16:32;96090.19;;;16.83;100.00
34328;BME280;20588;48.840;10.064;2023-07-02T06:18:59;96093.34;;;17.10;100.00
34328;BME280;20588;48.840;10.064;2023-07-02T06:21:25;96096.41;;;17.42;100.00
34328;BME280;20588;48.840;10.064;2023-07-02T06:23:56;96095.66;;;17.56;100.00
34328;BME280;20588;48.840;10.064;2023-07-02T06:26:22;96095.09;;;17.69;100.00
34328;BME280;20588;48.840;10.064;2023-07-02T06:28:48;96093.09;;;18.20;100.00
34328;BME280;20588;48.840;10.064;2023-07-02T06:31:14;96094.38;;;19.10;96.19
34328;BME280;20588;48.840;10.064;2023-07-02T06:33:40;96091.97;;;20.18;87.92
34328;BME280;20588;48.840;10.064;2023-07-02T06:36:08;96093.81;;;21.10;80.34
34328;BME280;20588;48.840;10.064;2023-07-02T06:38:34;96087.16;;;21.63;75.57
34328;BME280;20588;48.840;10.064;2023-07-02T06:41:00;96097.19;;;22.15;74.52
34328;BME280;20588;48.840;10.064;2023-07-02T06:43:26;96088.78;;;22.54;71.90
34328;BME280;20588;48.840;10.064;2023-07-02T06:45:52;96101.25;;;22.21;67.34
34328;BME280;20588;48.840;10.064;2023-07-02T06:48:18;96095.06;;;22.17;70.32
34328;BME280;20588;48.840;10.064;2023-07-02T06:50:47;96090.63;;;22.89;70.21
34328;BME280;20588;48.840;10.064;2023-07-02T06:53:14;96084.56;;;23.55;64.43
34328;BME280;20588;48.840;10.064;2023-07-02T06:55:40;96093.78;;;23.74;63.78
34328;BME280;20588;48.840;10.064;2023-07-02T06:58:06;96090.75;;;24.37;61.53
34328;BME280;20588;48.840;10.064;2023-07-02T07:00:33;96094.38;;;24.84;60.53
34328;BME280;20588;48.840;10.064;2023-07-02T07:03:03;96104.56;;;25.19;56.27
34328;BME280;20588;48.840;10.064;2023-07-02T07:05:32;96104.75;;;24.97;55.52
34328;BME280;20588;48.840;10.064;2023-07-02T07:08:00;96107.31;;;25.31;55.22
34328;BME280;20588;48.840;10.064;2023-07-02T07:10:27;96107.00;;;25.50;54.90
34328;BME280;20588;48.840;10.064;2023-07-02T07:12:53;96106.59;;;25.14;53.62
34328;BME280;20588;48.840;10.064;2023-07-02T07:15:19;96105.50;;;24.72;55.64
34328;BME280;20588;48.840;10.064;2023-07-02T07:17:45;96103.94;;;24.62;55.54
34328;BME280;20588;48.840;10.064;2023-07-02T07:20:12;96096.50;;;25.16;54.01
34328;BME280;20588;48.840;10.064;2023-07-02T07:22:38;96104.75;;;25.77;53.62
34328;BME280;20588;48.840;10.064;2023-07-02T07:25:07;96100.28;;;26.15;52.25
34328;BME280;20588;48.840;10.064;2023-07-02T07:27:33;96105.38;;;25.74;52.78
34328;BME280;20588;48.840;10.064;2023-07-02T07:29:59;96110.44;;;25.42;54.44
34328;BME280;20588;48.840;10.064;2023-07-02T07:32:25;96102.84;;;24.63;56.84
34328;BME280;20588;48.840;10.064;2023-07-02T07:34:51;96115.03;;;23.95;55.37
34328;BME280;20588;48.840;10.064;2023-07-02T07:37:17;96121.22;;;24.29;55.91
34328;BME280;20588;48.840;10.064;2023-07-02T07:39:43;96119.78;;;25.05;52.22
34328;BME280;20588;48.840;10.064;2023-07-02T07:42:09;96116.97;;;25.19;50.98
34328;BME280;20588;48.840;10.064;2023-07-02T07:44:35;96120.69;;;24.92;51.27
34328;BME280;20588;48.840;10.064;2023-07-02T07:47:04;96132.19;;;24.31;51.65
34328;BME280;20588;48.840;10.064;2023-07-02T07:49:31;96129.38;;;24.11;53.62
34328;BME280;20588;48.840;10.064;2023-07-02T07:51:57;96128.41;;;24.07;54.22
34328;BME280;20588;48.840;10.064;2023-07-02T07:54:23;96120.38;;;24.12;54.33
34328;BME280;20588;48.840;10.064;2023-07-02T07:56:50;96125.94;;;24.10;53.36
34328;BME280;20588;48.840;10.064;2023-07-02T07:59:16;96138.34;;;23.79;53.84
34328;BME280;20588;48.840;10.064;2023-07-02T08:01:42;96133.72;;;23.54;53.76
34328;BME280;20588;48.840;10.064;2023-07-02T08:04:08;96137.03;;;23.38;54.28
34328;BME280;20588;48.840;10.064;2023-07-02T08:06:35;96131.63;;;23.21;55.43
34328;BME280;20588;48.840;10.064;2023-07-02T08:09:01;96136.53;;;23.13;55.81
34328;BME280;20588;48.840;10.064;2023-07-02T08:11:29;96129.47;;;23.45;57.09
34328;BME280;20588;48.840;10.064;2023-07-02T08:13:57;96134.19;;;23.87;54.62
34328;BME280;20588;48.840;10.064;2023-07-02T08:16:23;96133.22;;;24.13;53.08
34328;BME280;20588;48.840;10.064;2023-07-02T08:18:49;96144.22;;;24.15;53.17
34328;BME280;20588;48.840;10.064;2023-07-02T08:21:15;96138.94;;;24.07;51.45
34328;BME280;20588;48.840;10.064;2023-07-02T08:23:43;96135.00;;;24.26;51.38
34328;BME280;20588;48.840;10.064;2023-07-02T08:26:12;96144.69;;;25.42;51.54
34328;BME280;20588;48.840;10.064;2023-07-02T08:28:39;96138.69;;;26.54;47.71
34328;BME280;20588;48.840;10.064;2023-07-02T08:31:07;96144.41;;;27.59;45.59
34328;BME280;20588;48.840;10.064;2023-07-02T08:33:33;96136.53;;;28.91;43.58
34328;BME280;20588;48.840;10.064;2023-07-02T08:35:59;96139.81;;;29.40;41.18
34328;BME280;20588;48.840;10.064;2023-07-02T08:38:26;96130.38;;;29.42;40.88
34328;BME280;20588;48.840;10.064;2023-07-02T08:40:52;96145.69;;;29.33;41.41
34328;BME280;20588;48.840;10.064;2023-07-02T08:43:18;96132.88;;;29.23;41.80
34328;BME280;20588;48.840;10.064;2023-07-02T08:45:45;96140.50;;;29.25;42.58
34328;BME280;20588;48.840;10.064;2023-07-02T08:48:12;96145.25;;;29.31;41.44
34328;BME280;20588;48.840;10.064;2023-07-02T08:50:38;96140.16;;;29.54;41.59
34328;BME280;20588;48.840;10.064;2023-07-02T08:53:04;96132.59;;;29.40;40.84
34328;BME280;20588;48.840;10.064;2023-07-02T08:55:30;96142.41;;;29.52;41.36
34328;BME280;20588;48.840;10.064;2023-07-02T08:57:57;96136.47;;;30.33;39.97
34328;BME280;20588;48.840;10.064;2023-07-02T09:00:26;96123.25;;;30.86;40.05
34328;BME280;20588;48.840;10.064;2023-07-02T09:02:52;96128.28;;;31.49;37.53
34328;BME280;20588;48.840;10.064;2023-07-02T09:05:18;96131.16;;;31.40;37.24
34328;BME280;20588;48.840;10.064;2023-07-02T09:07:49;96126.56;;;32.01;35.45
34328;BME280;20588;48.840;10.064;2023-07-02T09:10:29;96126.97;;;31.81;34.86
34328;BME280;20588;48.840;10.064;2023-07-02T09:13:06;96128.06;;;31.19;35.72
34328;BME280;20588;48.840;10.064;2023-07-02T09:15:40;96131.59;;;31.42;35.74
34328;BME280;20588;48.840;10.064;2023-07-02T09:18:20;96130.66;;;31.95;35.14
34328;BME280;20588;48.840;10.064;2023-07-02T09:20:49;96124.72;;;32.28;34.97
34328;BME280;20588;48.840;10.064;2023-07-02T09:23:16;96122.91;;;32.87;34.24
34328;BME280;20588;48.840;10.064;2023-07-02T09:25:42;96129.56;;;33.34;32.87
34328;BME280;20588;48.840;10.064;2023-07-02T09:28:17;96130.63;;;32.40;33.39
34328;BME280;20588;48.840;10.064;2023-07-02T09:30:53;96127.81;;;32.07;33.64
34328;BME280;20588;48.840;10.064;2023-07-02T09:33:29;96119.03;;;31.84;34.18
34328;BME280;20588;48.840;10.064;2023-07-02T09:35:55;96127.41;;;31.41;34.91
34328;BME280;20588;48.840;10.064;2023-07-02T09:38:22;96107.53;;;31.35;34.84
34328;BME280;20588;48.840;10.064;2023-07-02T09:40:51;96123.09;;;31.97;35.00
34328;BME280;20588;48.840;10.064;2023-07-02T09:43:18;96120.59;;;31.85;33.68
34328;BME280;20588;48.840;10.064;2023-07-02T09:45:50;96122.25;;;31.52;35.09
34328;BME280;20588;48.840;10.064;2023-07-02T09:48:17;96117.03;;;30.79;35.59
34328;BME280;20588;48.840;10.064;2023-07-02T09:50:45;96126.75;;;30.56;36.11
34328;BME280;20588;48.840;10.064;2023-07-02T09:53:12;96134.34;;;30.73;35.60
34328;BME280;20588;48.840;10.064;2023-07-02T09:55:43;96128.84;;;30.31;36.55
34328;BME280;20588;48.840;10.064;2023-07-02T09:58:09;96119.59;;;30.60;36.29
34328;BME280;20588;48.840;10.064;2023-07-02T10:00:36;96125.56;;;31.26;35.12
34328;BME280;20588;48.840;10.064;2023-07-02T10:03:03;96126.16;;;31.35;33.64
34328;BME280;20588;48.840;10.064;2023-07-02T10:05:31;96119.69;;;31.78;33.92
34328;BME280;20588;48.840;10.064;2023-07-02T10:08:21;96131.75;;;32.65;33.19
34328;BME280;20588;48.840;10.064;2023-07-02T10:10:52;96113.56;;;33.34;32.17
34328;BME280;20588;48.840;10.064;2023-07-02T10:13:28;96112.94;;;33.87;30.94
34328;BME280;20588;48.840;10.064;2023-07-02T10:16:02;96116.47;;;33.95;30.35
34328;BME280;20588;48.840;10.064;2023-07-02T10:18:28;96117.69;;;33.28;31.01
34328;BME280;20588;48.840;10.064;2023-07-02T10:20:54;96115.69;;;33.21;31.06
34328;BME280;20588;48.840;10.064;2023-07-02T10:23:21;96123.53;;;33.07;31.21
34328;BME280;20588;48.840;10.064;2023-07-02T10:25:58;96117.66;;;32.94;32.20
34328;BME280;20588;48.840;10.064;2023-07-02T10:28:24;96112.53;;;32.82;31.82
34328;BME280;20588;48.840;10.064;2023-07-02T10:30:53;96114.31;;;33.01;31.41
34328;BME280;20588;48.840;10.064;2023-07-02T10:33:20;96104.84;;;32.77;32.02
34328;BME280;20588;48.840;10.064;2023-07-02T10:35:48;96114.91;;;32.87;31.03
34328;BME280;20588;48.840;10.064;2023-07-02T10:38:25;96115.50;;;33.03;30.30
34328;BME280;20588;48.840;10.064;2023-07-02T10:40:56;96113.94;;;33.02;30.69
34328;BME280;20588;48.840;10.064;2023-07-02T10:43:29;96107.16;;;32.79;31.08
34328;BME280;20588;48.840;10.064;2023-07-02T10:45:56;96115.44;;;31.96;32.02
34328;BME280;20588;48.840;10.064;2023-07-02T10:48:22;96106.75;;;31.99;32.58
34328;BME280;20588;48.840;10.064;2023-07-02T10:50:48;96106.50;;;32.33;32.11
34328;BME280;20588;48.840;10.064;2023-07-02T10:53:16;96110.06;;;32.41;31.58
34328;BME280;20588;48.840;10.064;2023-07-02T10:55:42;96111.34;;;32.80;31.78
34328;BME280;20588;48.840;10.064;2023-07-02T10:58:10;96105.91;;;33.32;30.88
34328;BME280;20588;48.840;10.064;2023-07-02T11:00:49;96102.28;;;33.51;28.81
34328;BME280;20588;48.840;10.064;2023-07-02T11:03:22;96102.09;;;33.33;30.39
34328;BME280;20588;48.840;10.064;2023-07-02T11:05:49;96107.81;;;33.72;30.08
34328;BME280;20588;48.840;10.064;2023-07-02T11:08:16;96107.25;;;33.52;29.78
34328;BME280;20588;48.840;10.064;2023-07-02T11:10:42;96098.41;;;33.85;30.12
34328;BME280;20588;48.840;10.064;2023-07-02T11:13:21;96104.38;;;34.08;29.73
34328;BME280;20588;48.840;10.064;2023-07-02T11:15:47;96106.63;;;34.60;29.59
34328;BME280;20588;48.840;10.064;2023-07-02T11:18:14;96095.78;;;35.14;29.08
34328;BME280;20588;48.840;10.064;2023-07-02T11:20:43;96101.31;;;35.56;28.76
34328;BME280;20588;48.840;10.064;2023-07-02T11:23:19;96106.66;;;35.63;28.46
34328;BME280;20588;48.840;10.064;2023-07-02T11:26:00;96108.19;;;35.57;28.11
34328;BME280;20588;48.840;10.064;2023-07-02T11:28:28;96102.44;;;35.55;28.22
34328;BME280;20588;48.840;10.064;2023-07-02T11:30:54;96093.63;;;34.55;28.11
34328;BME280;20588;48.840;10.064;2023-07-02T11:33:54;96097.78;;;33.55;29.24
34328;BME280;20588;48.840;10.064;2023-07-02T11:36:21;96091.75;;;33.28;29.85
34328;BME280;20588;48.840;10.064;2023-07-02T11:38:49;96096.41;;;33.01;29.49
34328;BME280;20588;48.840;10.064;2023-07-02T11:41:16;96086.03;;;32.37;30.21
34328;BME280;20588;48.840;10.064;2023-07-02T11:43:43;96087.31;;;31.76;31.96
34328;BME280;20588;48.840;10.064;2023-07-02T11:46:09;96084.06;;;31.21;33.17
34328;BME280;20588;48.840;10.064;2023-07-02T11:48:35;96086.63;;;31.37;33.49
34328;BME280;20588;48.840;10.064;2023-07-02T11:51:01;96077.53;;;31.19;32.74
34328;BME280;20588;48.840;10.064;2023-07-02T11:53:27;96078.19;;;30.74;33.17
34328;BME280;20588;48.840;10.064;2023-07-02T11:55:53;96082.25;;;30.72;33.87
34328;BME280;20588;48.840;10.064;2023-07-02T11:58:19;96070.63;;;30.95;33.46
34328;BME280;20588;48.840;10.064;2023-07-02T12:00:45;96069.06;;;31.13;33.45
34328;BME280;20588;48.840;10.064;2023-07-02T12:03:11;96070.91;;;30.90;33.70
34328;BME280;20588;48.840;10.064;2023-07-02T12:05:38;96068.88;;;31.03;34.04
34328;BME280;20588;48.840;10.064;2023-07-02T12:08:05;96068.38;;;31.16;34.20
34328;BME280;20588;48.840;10.064;2023-07-02T12:10:31;96070.09;;;31.47;32.90
34328;BME280;20588;48.840;10.064;2023-07-02T12:12:57;96067.13;;;31.52;33.23
34328;BME280;20588;48.840;10.064;2023-07-02T12:15:23;96062.94;;;31.51;33.62
34328;BME280;20588;48.840;10.064;2023-07-02T12:17:49;96059.03;;;31.90;33.19
34328;BME280;20588;48.840;10.064;2023-07-02T12:20:15;96067.78;;;32.39;32.19
34328;BME280;20588;48.840;10.064;2023-07-02T12:22:41;96069.56;;;32.32;32.19
34328;BME280;20588;48.840;10.064;2023-07-02T12:25:07;96066.84;;;32.54;31.32
34328;BME280;20588;48.840;10.064;2023-07-02T12:27:33;96063.09;;;32.88;31.67
34328;BME280;20588;48.840;10.064;2023-07-02T12:30:00;96062.00;;;32.63;31.18
34328;BME280;20588;48.840;10.064;2023-07-02T12:32:26;96060.06;;;32.60;30.91
34328;BME280;20588;48.840;10.064;2023-07-02T12:34:52;96057.97;;;32.47;30.44
34328;BME280;20588;48.840;10.064;2023-07-02T12:37:18;96055.66;;;32.75;31.29
34328;BME280;20588;48.840;10.064;2023-07-02T12:39:44;96055.75;;;32.82;30.65
34328;BME280;20588;48.840;10.064;2023-07-02T12:42:10;96050.69;;;33.03;31.00
34328;BME280;20588;48.840;10.064;2023-07-02T12:44:37;96057.16;;;33.39;31.05
34328;BME280;20588;48.840;10.064;2023-07-02T12:47:03;96066.06;;;33.90;31.79
34328;BME280;20588;48.840;10.064;2023-07-02T12:49:29;96068.34;;;33.91;30.43